createdAt,value
2018-07-01T00:00:53.876Z,0.77
2018-07-01T00:03:22.313Z,0.73
2018-07-01T00:05:51.047Z,1.00
2018-07-01T00:08:20.245Z,1.10
2018-07-01T00:10:48.960Z,0.80
2018-07-01T00:13:17.050Z,0.90
2018-07-01T00:15:45.810Z,1.00
2018-07-01T00:18:14.506Z,0.73
2018-07-01T00:20:42.670Z,0.80
2018-07-01T00:23:10.794Z,0.60
2018-07-01T00:25:38.997Z,0.70
2018-07-01T00:28:07.918Z,0.87
2018-07-01T00:30:37.115Z,0.50
2018-07-01T00:33:05.747Z,0.90
2018-07-01T00:35:34.203Z,0.60
2018-07-01T00:38:02.786Z,0.63
2018-07-01T00:40:31.655Z,0.60
2018-07-01T00:43:00.737Z,0.60
2018-07-01T00:45:28.962Z,0.60
2018-07-01T00:47:57.689Z,0.60
2018-07-01T00:50:26.964Z,0.67
2018-07-01T00:52:55.011Z,0.70
2018-07-01T00:55:23.738Z,0.50
2018-07-01T00:57:52.051Z,0.80
2018-07-01T01:00:26.279Z,0.70
2018-07-01T01:02:55.886Z,0.80
2018-07-01T01:05:24.257Z,0.88
2018-07-01T01:07:52.633Z,1.02
2018-07-01T01:10:21.477Z,0.73
2018-07-01T01:12:51.318Z,0.70
2018-07-01T01:15:19.769Z,0.90
2018-07-01T01:17:48.207Z,0.80
2018-07-01T01:20:17.601Z,0.70
2018-07-01T01:22:45.767Z,0.50
2018-07-01T01:25:13.957Z,0.73
2018-07-01T01:27:43.361Z,0.50
2018-07-01T01:30:12.242Z,0.67
2018-07-01T01:32:41.289Z,0.60
2018-07-01T01:35:09.417Z,0.60
2018-07-01T01:37:38.998Z,0.80
2018-07-01T01:40:10.305Z,0.83
2018-07-01T01:51:59.205Z,0.80
2018-07-01T01:54:32.293Z,0.80
2018-07-01T01:57:05.117Z,1.10
2018-07-01T02:00:38.854Z,1.10
2018-07-01T02:03:14.337Z,0.90
2018-07-01T02:05:48.650Z,0.83
2018-07-01T02:09:20.236Z,0.90
2018-07-01T02:11:54.345Z,0.80
2018-07-01T02:14:32.406Z,0.90
2018-07-01T02:17:03.470Z,0.70
2018-07-01T02:19:31.610Z,0.90
2018-07-01T02:22:00.922Z,0.73
2018-07-01T02:24:36.081Z,0.90
2018-07-01T02:27:05.790Z,0.90
2018-07-01T02:29:34.768Z,0.70
2018-07-01T02:32:03.265Z,0.70
2018-07-01T02:34:32.074Z,0.80
2018-07-01T02:37:00.674Z,0.90
2018-07-01T02:39:28.913Z,0.80
2018-07-01T02:41:57.063Z,0.70
2018-07-01T02:44:25.310Z,1.23
2018-07-01T02:46:54.261Z,0.90
2018-07-01T02:49:23.143Z,0.80
2018-07-01T02:51:51.681Z,0.90
2018-07-01T02:54:21.720Z,0.83
2018-07-01T02:56:50.003Z,0.80
2018-07-01T02:59:18.711Z,0.87
2018-07-01T03:01:48.119Z,0.83
2018-07-01T03:04:17.700Z,0.90
2018-07-01T03:06:45.798Z,0.90
2018-07-01T03:09:14.421Z,0.50
2018-07-01T03:11:42.878Z,0.80
2018-07-01T03:14:11.650Z,0.70
2018-07-01T03:16:39.902Z,0.70
2018-07-01T03:19:08.618Z,1.00
2018-07-01T03:21:37.378Z,0.70
2018-07-01T03:24:06.243Z,0.73
2018-07-01T03:26:34.370Z,0.90
2018-07-01T03:29:02.561Z,0.80
2018-07-01T03:31:30.698Z,0.70
2018-07-01T03:33:59.873Z,0.60
2018-07-01T03:36:27.792Z,0.67
2018-07-01T03:38:55.965Z,0.63
2018-07-01T03:41:24.903Z,0.80
2018-07-01T03:43:53.754Z,0.90
2018-07-01T03:46:22.803Z,0.90
2018-07-01T03:48:51.286Z,0.93
2018-07-01T03:51:20.305Z,0.90
2018-07-01T03:53:48.626Z,0.80
2018-07-01T03:56:17.505Z,0.80
2018-07-01T03:58:45.466Z,1.00
2018-07-01T04:01:13.634Z,0.70
2018-07-01T04:03:41.791Z,1.00
2018-07-01T04:06:09.967Z,0.90
2018-07-01T04:08:38.898Z,0.70
2018-07-01T04:11:07.372Z,0.70
2018-07-01T04:13:36.575Z,0.90
2018-07-01T04:16:04.906Z,1.03
2018-07-01T04:18:34.321Z,0.90
2018-07-01T04:21:02.929Z,1.00
2018-07-01T04:23:31.886Z,0.80
2018-07-01T04:26:01.014Z,0.60
2018-07-01T04:28:30.026Z,1.20
2018-07-01T04:30:57.917Z,0.90
2018-07-01T04:33:26.554Z,2.23
2018-07-01T04:35:54.752Z,1.20
2018-07-01T04:38:23.442Z,1.00
2018-07-01T04:40:51.574Z,0.97
2018-07-01T04:43:20.350Z,0.60
2018-07-01T04:45:48.902Z,0.70
2018-07-01T04:48:17.546Z,0.53
2018-07-01T04:50:46.165Z,0.70
2018-07-01T04:53:14.571Z,0.70
2018-07-01T04:55:43.416Z,0.50
2018-07-01T04:58:11.778Z,0.60
2018-07-01T05:00:39.975Z,0.50
2018-07-01T05:03:08.469Z,0.50
2018-07-01T05:05:36.393Z,0.60
2018-07-01T05:08:04.755Z,0.47
2018-07-01T05:10:33.311Z,0.47
2018-07-01T05:13:01.668Z,0.43
2018-07-01T05:15:30.440Z,0.60
2018-07-01T05:17:58.497Z,0.50
2018-07-01T05:20:27.726Z,0.43
2018-07-01T05:22:55.726Z,0.40
2018-07-01T05:25:24.334Z,0.50
2018-07-01T05:27:53.763Z,0.40
2018-07-01T05:30:23.105Z,0.50
2018-07-01T05:32:52.405Z,0.42
2018-07-01T05:35:21.321Z,0.50
2018-07-01T05:37:49.770Z,0.30
2018-07-01T05:40:17.716Z,0.40
2018-07-01T05:42:46.903Z,0.40
2018-07-01T05:45:16.370Z,0.40
2018-07-01T05:47:45.126Z,0.35
2018-07-01T05:50:13.827Z,0.60
2018-07-01T05:52:42.724Z,0.30
2018-07-01T05:55:11.328Z,0.30
2018-07-01T05:57:40.443Z,0.50
2018-07-01T06:00:09.103Z,0.37
2018-07-01T06:02:38.043Z,0.30
2018-07-01T06:05:06.534Z,0.33
2018-07-01T06:07:35.480Z,0.30
2018-07-01T06:10:04.859Z,0.33
2018-07-01T06:15:08.374Z,0.40
2018-07-01T06:17:37.095Z,0.20
2018-07-01T06:20:05.279Z,0.30
2018-07-01T06:22:34.028Z,0.20
2018-07-01T06:25:02.663Z,0.20
2018-07-01T06:27:31.359Z,0.30
2018-07-01T06:30:00.045Z,0.28
2018-07-01T06:32:29.829Z,0.20
2018-07-01T06:34:58.210Z,0.10
2018-07-01T06:37:26.470Z,0.30
2018-07-01T06:39:54.793Z,0.30
2018-07-01T06:42:23.902Z,0.10
2018-07-01T06:44:52.848Z,0.23
2018-07-01T06:47:22.311Z,0.25
2018-07-01T06:49:50.162Z,0.20
2018-07-01T06:52:18.253Z,0.20
2018-07-01T06:54:46.161Z,0.10
2018-07-01T06:57:14.350Z,0.10
2018-07-01T06:59:42.778Z,0.10
2018-07-01T07:02:10.901Z,0.10
2018-07-01T07:04:39.657Z,0.10
2018-07-01T07:07:08.292Z,0.10
2018-07-01T07:09:36.349Z,0.10
2018-07-01T07:12:04.738Z,0.10
2018-07-01T07:14:33.402Z,0.20
2018-07-01T07:17:02.278Z,0.10
2018-07-01T07:19:30.654Z,0.10
2018-07-01T07:22:00.219Z,0.10
2018-07-01T07:24:29.011Z,0.10
2018-07-01T07:26:57.755Z,0.10
2018-07-01T07:29:26.773Z,0.10
2018-07-01T07:31:55.645Z,0.00
2018-07-01T07:34:23.757Z,0.10
2018-07-01T07:36:51.971Z,0.10
2018-07-01T07:39:20.255Z,0.10
2018-07-01T07:41:49.853Z,0.10
2018-07-01T07:44:18.358Z,0.10
2018-07-01T07:46:46.613Z,0.10
2018-07-01T07:49:14.812Z,0.00
2018-07-01T07:51:43.061Z,0.10
2018-07-01T07:54:11.518Z,0.00
2018-07-01T07:56:40.009Z,0.17
2018-07-01T07:59:08.075Z,0.10
2018-07-01T08:01:36.640Z,0.10
2018-07-01T08:04:05.365Z,0.00
2018-07-01T08:06:34.667Z,0.10
2018-07-01T08:09:02.553Z,0.08
2018-07-01T08:11:32.134Z,0.03
2018-07-01T08:14:00.077Z,0.10
2018-07-01T08:16:28.186Z,0.10
2018-07-01T08:18:57.361Z,0.13
2018-07-01T08:21:26.087Z,0.00
2018-07-01T08:23:54.196Z,0.10
2018-07-01T08:26:23.541Z,0.10
2018-07-01T08:28:51.476Z,0.20
2018-07-01T08:31:20.262Z,0.10
2018-07-01T08:33:48.489Z,0.20
2018-07-01T08:36:17.189Z,0.20
2018-07-01T08:38:45.677Z,0.10
2018-07-01T08:41:14.356Z,0.10
2018-07-01T08:43:42.650Z,0.10
2018-07-01T08:46:10.933Z,0.10
2018-07-01T08:48:39.341Z,0.10
2018-07-01T08:51:07.510Z,0.10
2018-07-01T08:53:36.650Z,0.20
2018-07-01T08:56:05.344Z,0.17
2018-07-01T08:58:33.758Z,0.10
2018-07-01T09:01:02.769Z,0.10
2018-07-01T09:03:30.865Z,0.00
2018-07-01T09:05:59.520Z,0.10
2018-07-01T09:08:27.917Z,0.20
2018-07-01T09:10:56.698Z,0.10
2018-07-01T09:13:26.077Z,0.10
2018-07-01T09:15:54.957Z,0.20
2018-07-01T09:18:24.886Z,0.10
2018-07-01T09:20:53.250Z,0.10
2018-07-01T09:23:22.589Z,0.05
2018-07-01T09:25:51.384Z,0.20
2018-07-01T09:28:19.513Z,0.10
2018-07-01T09:30:47.856Z,0.10
2018-07-01T09:33:16.630Z,0.20
2018-07-01T09:35:45.475Z,0.20
2018-07-01T09:38:13.983Z,0.10
2018-07-01T09:40:42.102Z,0.13
2018-07-01T09:43:11.634Z,0.30
2018-07-01T09:45:40.377Z,0.20
2018-07-01T09:48:08.365Z,0.10
2018-07-01T09:50:37.511Z,0.10
2018-07-01T09:53:07.452Z,0.20
2018-07-01T09:55:35.797Z,0.10
2018-07-01T09:58:04.429Z,0.10
2018-07-01T10:00:33.388Z,0.10
2018-07-01T10:03:02.062Z,0.10
2018-07-01T10:05:30.621Z,0.17
2018-07-01T10:08:00.293Z,0.30
2018-07-01T10:10:29.636Z,0.10
2018-07-01T10:12:57.828Z,0.20
2018-07-01T10:15:27.249Z,0.20
2018-07-01T10:17:56.655Z,0.10
2018-07-01T10:20:25.631Z,0.20
2018-07-01T10:22:54.014Z,0.20
2018-07-01T10:25:22.737Z,0.20
2018-07-01T10:27:51.379Z,0.20
2018-07-01T10:30:20.210Z,0.10
2018-07-01T10:32:48.373Z,0.20
2018-07-01T10:35:17.877Z,0.03
2018-07-01T10:37:46.684Z,0.13
2018-07-01T10:40:14.819Z,0.20
2018-07-01T10:42:44.657Z,0.10
2018-07-01T10:45:13.122Z,0.10
2018-07-01T10:47:42.430Z,0.20
2018-07-01T10:50:11.347Z,0.20
2018-07-01T10:52:40.398Z,0.10
2018-07-01T10:55:08.702Z,0.30
2018-07-01T10:57:37.172Z,0.25
2018-07-01T11:00:06.057Z,0.28
2018-07-01T11:02:35.071Z,0.20
2018-07-01T11:05:03.639Z,0.30
2018-07-01T11:07:32.646Z,0.30
2018-07-01T11:10:00.987Z,0.30
2018-07-01T11:12:29.822Z,0.20
2018-07-01T11:14:58.016Z,0.25
2018-07-01T11:17:27.274Z,0.33
2018-07-01T11:19:55.511Z,0.20
2018-07-01T11:22:23.710Z,0.20
2018-07-01T11:24:52.812Z,0.20
2018-07-01T11:27:21.805Z,0.20
2018-07-01T11:29:50.083Z,0.20
2018-07-01T11:32:18.293Z,0.25
2018-07-01T11:34:46.421Z,0.20
2018-07-01T11:37:14.718Z,0.20
2018-07-01T11:39:43.319Z,0.40
2018-07-01T11:42:11.810Z,0.20
2018-07-01T11:44:40.700Z,0.20
2018-07-01T11:47:09.811Z,0.20
2018-07-01T11:49:38.644Z,0.30
2018-07-01T11:52:07.805Z,0.30
2018-07-01T11:54:36.546Z,0.33
2018-07-01T11:57:05.206Z,0.30
2018-07-01T11:59:33.893Z,0.30
2018-07-01T12:02:02.113Z,0.40
2018-07-01T12:04:30.836Z,0.20
2018-07-01T12:07:00.658Z,0.30
2018-07-01T12:09:28.705Z,0.20
2018-07-01T12:11:57.575Z,0.30
2018-07-01T12:14:25.966Z,0.30
2018-07-01T12:16:54.411Z,0.30
2018-07-01T12:19:23.034Z,0.40
2018-07-01T12:21:52.510Z,0.30
2018-07-01T12:24:21.446Z,0.30
2018-07-01T12:26:50.394Z,0.23
2018-07-01T12:29:23.291Z,0.30
2018-07-01T12:31:52.364Z,0.10
2018-07-01T12:34:20.566Z,0.35
2018-07-01T12:36:49.255Z,0.20
2018-07-01T12:39:17.698Z,0.13
2018-07-01T12:41:46.776Z,0.30
2018-07-01T12:44:15.245Z,0.15
2018-07-01T12:46:43.605Z,0.28
2018-07-01T12:49:13.628Z,0.30
2018-07-01T12:51:42.489Z,0.30
2018-07-01T12:54:12.502Z,0.20
2018-07-01T12:56:42.337Z,0.20
2018-07-01T12:59:10.534Z,0.65
2018-07-01T13:01:38.686Z,0.13
2018-07-01T13:04:07.197Z,0.10
2018-07-01T13:06:35.622Z,0.10
2018-07-01T13:09:06.168Z,0.25
2018-07-01T13:11:35.669Z,0.25
2018-07-01T13:14:05.589Z,0.28
2018-07-01T13:16:34.147Z,0.20
2018-07-01T13:19:03.597Z,0.20
2018-07-01T13:21:33.082Z,0.30
2018-07-01T13:24:01.707Z,0.23
2018-07-01T13:26:30.926Z,0.20
2018-07-01T13:28:58.939Z,0.30
2018-07-01T13:31:27.954Z,0.20
2018-07-01T13:33:56.609Z,0.20
2018-07-01T13:36:26.123Z,0.20
2018-07-01T13:38:54.407Z,0.10
2018-07-01T13:41:22.702Z,0.20
2018-07-01T13:43:50.897Z,0.15
2018-07-01T13:46:20.858Z,0.23
2018-07-01T13:48:49.070Z,0.20
2018-07-01T13:51:17.558Z,0.30
2018-07-01T13:53:46.882Z,0.20
2018-07-01T13:56:15.488Z,0.10
2018-07-01T13:58:43.715Z,0.20
2018-07-01T14:01:12.951Z,0.10
2018-07-01T14:03:42.121Z,0.28
2018-07-01T14:06:10.598Z,0.20
2018-07-01T14:08:39.014Z,0.10
2018-07-01T14:11:07.643Z,0.20
2018-07-01T14:13:36.673Z,0.10
2018-07-01T14:16:05.228Z,0.10
2018-07-01T14:18:33.460Z,0.28
2018-07-01T14:21:02.453Z,0.10
2018-07-01T14:23:30.655Z,0.10
2018-07-01T14:27:03.062Z,0.10
2018-07-01T14:29:31.013Z,0.20
2018-07-01T14:31:59.423Z,0.13
2018-07-01T14:34:27.869Z,0.20
2018-07-01T14:36:56.847Z,0.20
2018-07-01T14:39:25.195Z,0.20
2018-07-01T14:41:53.337Z,0.10
2018-07-01T14:44:21.503Z,0.15
2018-07-01T14:46:50.221Z,0.23
2018-07-01T14:49:18.443Z,0.37
2018-07-01T14:51:46.708Z,0.20
2018-07-01T14:54:15.322Z,0.15
2018-07-01T14:56:44.389Z,0.13
2018-07-01T14:59:12.690Z,0.10
2018-07-01T15:01:41.491Z,0.15
2018-07-01T15:04:11.601Z,0.20
2018-07-01T15:06:39.802Z,0.20
2018-07-01T15:09:10.794Z,0.30
2018-07-01T15:11:40.142Z,0.25
2018-07-01T15:14:09.108Z,0.10
2018-07-01T15:16:37.641Z,0.20
2018-07-01T15:19:06.154Z,0.20
2018-07-01T15:21:35.583Z,0.10
2018-07-01T15:24:03.960Z,0.20
2018-07-01T15:26:32.526Z,0.30
2018-07-01T15:29:01.259Z,0.10
2018-07-01T15:31:29.436Z,0.20
2018-07-01T15:33:57.718Z,0.20
2018-07-01T15:36:26.019Z,0.20
2018-07-01T15:38:54.746Z,0.33
2018-07-01T15:41:23.410Z,0.20
2018-07-01T15:43:51.982Z,0.10
2018-07-01T15:46:19.934Z,0.13
2018-07-01T15:48:48.730Z,0.13
2018-07-01T15:51:17.962Z,0.20
2018-07-01T15:53:46.116Z,0.20
2018-07-01T15:56:15.342Z,0.20
2018-07-01T15:58:43.570Z,0.20
2018-07-01T16:01:11.980Z,0.33
2018-07-01T16:03:41.135Z,0.30
2018-07-01T16:06:09.424Z,0.17
2018-07-01T16:08:38.098Z,0.35
2018-07-01T16:11:06.287Z,0.20
2018-07-01T16:13:34.519Z,0.28
2018-07-01T16:16:02.811Z,0.30
2018-07-01T16:18:31.661Z,0.30
2018-07-01T16:21:00.752Z,0.20
2018-07-01T16:23:29.799Z,0.30
2018-07-01T16:26:04.098Z,0.23
2018-07-01T16:28:38.144Z,0.10
2018-07-01T16:31:06.295Z,0.17
2018-07-01T16:33:34.737Z,0.20
2018-07-01T16:36:03.082Z,0.30
2018-07-01T16:38:31.305Z,0.30
2018-07-01T16:40:59.999Z,0.20
2018-07-01T16:43:28.698Z,0.20
2018-07-01T16:45:56.913Z,0.20
2018-07-01T16:48:25.315Z,0.10
2018-07-01T16:50:54.015Z,0.47
2018-07-01T16:53:22.830Z,0.17
2018-07-01T16:55:51.087Z,0.20
2018-07-01T16:58:19.848Z,0.40
2018-07-01T17:00:48.593Z,0.30
2018-07-01T17:03:17.215Z,0.20
2018-07-01T17:05:45.405Z,0.20
2018-07-01T17:08:14.250Z,0.40
2018-07-01T17:10:42.745Z,0.30
2018-07-01T17:13:11.083Z,0.40
2018-07-01T17:15:39.854Z,0.37
2018-07-01T17:18:08.625Z,0.35
2018-07-01T17:20:37.238Z,0.30
2018-07-01T17:23:05.670Z,0.20
2018-07-01T17:25:38.727Z,1.32
2018-07-01T17:28:07.863Z,0.70
2018-07-01T17:30:36.938Z,0.20
2018-07-01T17:33:10.545Z,0.60
2018-07-01T17:35:39.188Z,0.30
2018-07-01T17:38:08.356Z,0.68
2018-07-01T17:40:36.799Z,0.50
2018-07-01T17:43:05.194Z,0.30
2018-07-01T17:45:34.894Z,0.20
2018-07-01T17:48:03.067Z,0.30
2018-07-01T17:50:31.855Z,0.33
2018-07-01T17:53:00.752Z,0.50
2018-07-01T17:55:29.763Z,0.33
2018-07-01T17:57:58.645Z,0.28
2018-07-01T18:00:27.640Z,0.40
2018-07-01T18:02:56.590Z,0.30
2018-07-01T18:05:25.656Z,0.25
2018-07-01T18:07:53.871Z,0.23
2018-07-01T18:10:21.947Z,0.30
2018-07-01T18:12:50.582Z,0.15
2018-07-01T18:15:19.170Z,0.28
2018-07-01T18:17:47.121Z,0.20
2018-07-01T18:20:15.544Z,0.30
2018-07-01T18:23:09.763Z,0.40
2018-07-01T18:25:12.991Z,0.30
2018-07-01T18:27:45.809Z,0.30
2018-07-01T18:30:10.244Z,0.37
2018-07-01T18:32:39.094Z,0.20
2018-07-01T18:35:07.540Z,0.20
2018-07-01T18:37:36.111Z,0.17
2018-07-01T18:40:04.139Z,0.30
2018-07-01T18:42:33.664Z,0.30
2018-07-01T18:45:01.799Z,0.25
2018-07-01T18:47:30.228Z,0.28
2018-07-01T18:49:58.650Z,0.20
2018-07-01T18:52:27.050Z,0.23
2018-07-01T18:54:55.367Z,0.47
2018-07-01T18:57:23.563Z,0.30
2018-07-01T18:59:51.810Z,0.30
2018-07-01T19:02:21.473Z,0.28
2018-07-01T19:04:50.122Z,0.50
2018-07-01T19:07:19.374Z,0.30
2018-07-01T19:09:48.108Z,0.30
2018-07-01T19:12:17.275Z,0.30
2018-07-01T19:14:48.954Z,0.28
2018-07-01T19:17:18.047Z,0.30
2018-07-01T19:19:46.518Z,0.30
2018-07-01T19:22:14.796Z,0.30
2018-07-01T19:24:43.599Z,0.20
2018-07-01T19:27:11.851Z,0.28
2018-07-01T19:29:40.394Z,0.20
2018-07-01T19:32:08.741Z,0.20
2018-07-01T19:34:37.006Z,0.30
2018-07-01T19:37:05.836Z,0.20
2018-07-01T19:39:34.297Z,0.20
2018-07-01T19:42:03.065Z,0.30
2018-07-01T19:44:32.468Z,0.40
2018-07-01T19:47:01.168Z,0.30
2018-07-01T19:49:30.596Z,0.45
2018-07-01T19:51:58.768Z,0.28
2018-07-01T19:54:27.246Z,0.30
2018-07-01T19:56:56.289Z,0.40
2018-07-01T19:59:24.730Z,0.37
2018-07-01T20:01:53.325Z,0.15
2018-07-01T20:04:22.050Z,0.30
2018-07-01T20:06:50.978Z,0.35
2018-07-01T20:09:20.390Z,0.33
2018-07-01T20:11:49.258Z,0.37
2018-07-01T20:14:18.297Z,0.30
2018-07-01T20:16:46.241Z,0.40
2018-07-01T20:19:14.353Z,0.25
2018-07-01T20:21:42.595Z,0.20
2018-07-01T20:24:11.382Z,0.40
2018-07-01T20:26:39.583Z,0.40
2018-07-01T20:29:07.489Z,0.30
2018-07-01T20:31:35.750Z,0.30
2018-07-01T20:34:04.031Z,0.25
2018-07-01T20:36:33.306Z,0.30
2018-07-01T20:39:02.049Z,0.50
2018-07-01T20:41:30.286Z,0.30
2018-07-01T20:43:58.577Z,0.37
2018-07-01T20:46:26.833Z,0.40
2018-07-01T20:48:55.758Z,0.33
2018-07-01T20:51:24.214Z,0.30
2018-07-01T20:53:52.713Z,0.40
2018-07-01T20:56:21.000Z,0.30
2018-07-01T20:58:49.360Z,0.30
2018-07-01T21:01:17.750Z,0.20
2018-07-01T21:03:46.225Z,0.40
2018-07-01T21:06:15.110Z,0.30
2018-07-01T21:08:43.552Z,0.40
2018-07-01T21:11:11.688Z,0.10
2018-07-01T21:13:40.339Z,0.30
2018-07-01T21:16:09.282Z,0.30
2018-07-01T21:18:38.570Z,0.43
2018-07-01T21:21:07.378Z,0.30
2018-07-01T21:23:36.159Z,0.30
2018-07-01T21:26:05.193Z,0.40
2018-07-01T21:28:33.759Z,0.40
2018-07-01T21:31:01.857Z,0.40
2018-07-01T21:33:30.195Z,0.30
2018-07-01T21:35:58.905Z,0.30
2018-07-01T21:38:27.894Z,0.50
2018-07-01T21:40:58.262Z,0.30
2018-07-01T21:43:28.292Z,0.43
2018-07-01T21:45:56.827Z,0.40
2018-07-01T21:48:25.280Z,0.50
2018-07-01T21:50:54.617Z,0.40
2018-07-01T21:53:23.231Z,0.40
2018-07-01T21:55:52.634Z,0.30
2018-07-01T21:58:21.193Z,0.30
2018-07-01T22:00:50.582Z,0.37
2018-07-01T22:03:19.318Z,0.40
2018-07-01T22:05:47.587Z,0.30
2018-07-01T22:08:16.602Z,0.47
2018-07-01T22:10:56.016Z,0.47
2018-07-01T22:14:29.138Z,0.40
2018-07-01T22:16:57.948Z,0.40
2018-07-01T22:19:26.618Z,0.40
2018-07-01T22:21:56.723Z,0.40
2018-07-01T22:24:26.217Z,0.40
2018-07-01T22:26:54.720Z,0.50
2018-07-01T22:29:23.510Z,0.43
2018-07-01T22:31:52.790Z,0.33
2018-07-01T22:34:21.514Z,0.50
2018-07-01T22:36:50.399Z,0.57
2018-07-01T22:39:23.999Z,0.50
2018-07-01T22:41:52.998Z,0.60
2018-07-01T22:44:21.573Z,0.70
2018-07-01T22:46:51.583Z,0.57
2018-07-01T22:49:20.482Z,0.43
2018-07-01T22:51:48.712Z,0.50
2018-07-01T22:54:17.427Z,0.50
2018-07-01T22:56:47.988Z,0.50
2018-07-01T22:59:16.158Z,0.60
2018-07-01T23:02:57.383Z,0.50
2018-07-01T23:05:25.474Z,0.40
2018-07-01T23:07:54.216Z,0.60
2018-07-01T23:10:23.950Z,0.67
2018-07-01T23:12:53.148Z,0.50
2018-07-01T23:15:22.066Z,0.50
2018-07-01T23:17:51.271Z,0.70
2018-07-01T23:20:19.501Z,0.60
2018-07-01T23:22:47.492Z,0.50
2018-07-01T23:25:16.130Z,0.50
2018-07-01T23:27:45.915Z,0.50
2018-07-01T23:30:14.777Z,0.57
2018-07-01T23:32:43.126Z,0.60
2018-07-01T23:35:12.362Z,0.60
2018-07-01T23:37:41.007Z,0.60
2018-07-01T23:40:10.155Z,0.60
2018-07-01T23:42:39.005Z,0.50
2018-07-01T23:45:09.318Z,0.77
2018-07-01T23:47:37.998Z,0.60
2018-07-01T23:50:06.660Z,0.50
2018-07-01T23:52:35.094Z,0.53
2018-07-01T23:55:03.652Z,0.70
2018-07-01T23:57:32.475Z,0.60
